createdAt,value
2023-03-05T00:00:54.467Z,28.77
2023-03-05T00:11:03.827Z,21.57
2023-03-05T00:21:16.806Z,21.13
2023-03-05T00:31:20.220Z,21.57
2023-03-05T00:41:22.038Z,21.67
2023-03-05T00:51:24.776Z,21.70
2023-03-05T01:01:26.844Z,20.10
2023-03-05T01:11:28.536Z,22.63
2023-03-05T01:21:30.459Z,24.20
2023-03-05T01:31:32.150Z,22.15
2023-03-05T01:41:34.764Z,23.67
2023-03-05T01:51:45.366Z,25.00
2023-03-05T02:01:51.159Z,21.67
2023-03-05T02:11:52.948Z,16.40
2023-03-05T02:21:54.716Z,19.00
2023-03-05T02:31:56.398Z,19.40
2023-03-05T02:41:58.257Z,21.33
2023-03-05T02:52:00.406Z,20.30
2023-03-05T03:02:02.118Z,19.03
2023-03-05T03:12:04.854Z,25.40
2023-03-05T03:22:08.558Z,19.50
2023-03-05T03:32:10.378Z,21.13
2023-03-05T03:42:12.148Z,22.00
2023-03-05T03:52:13.840Z,22.17
2023-03-05T04:02:15.626Z,25.53
2023-03-05T04:12:17.513Z,17.53
2023-03-05T04:22:19.261Z,21.27
2023-03-05T04:32:20.945Z,14.40
2023-03-05T04:42:22.636Z,15.10
2023-03-05T04:52:24.439Z,13.43
2023-03-05T05:02:26.310Z,13.00
2023-03-05T05:12:31.096Z,16.53
2023-03-05T05:22:33.454Z,12.90
2023-03-05T05:32:35.330Z,14.13
2023-03-05T05:42:37.215Z,12.27
2023-03-05T05:52:39.060Z,17.25
2023-03-05T06:02:42.275Z,12.23
2023-03-05T06:12:44.016Z,15.23
2023-03-05T06:22:45.857Z,13.57
2023-03-05T06:32:47.626Z,16.00
2023-03-05T06:42:49.381Z,12.23
2023-03-05T06:52:51.054Z,14.30
2023-03-05T07:02:52.889Z,16.83
2023-03-05T07:12:54.559Z,13.02
2023-03-05T07:22:56.472Z,11.90
2023-03-05T07:32:58.201Z,12.73
2023-03-05T07:42:59.943Z,14.53
2023-03-05T07:53:01.566Z,14.00
2023-03-05T08:03:03.392Z,19.10
2023-03-05T08:13:05.575Z,14.70
2023-03-05T08:23:07.266Z,14.47
2023-03-05T08:33:09.141Z,15.97
2023-03-05T08:43:10.849Z,15.67
2023-03-05T08:53:12.679Z,16.90
2023-03-05T09:03:14.503Z,13.30
2023-03-05T09:13:16.246Z,12.67
2023-03-05T09:23:18.066Z,13.57
2023-03-05T09:33:19.920Z,15.17
2023-03-05T09:43:44.123Z,15.60
2023-03-05T09:54:02.795Z,15.70
2023-03-05T10:04:13.899Z,19.07
2023-03-05T10:14:25.233Z,21.47
2023-03-05T10:24:55.760Z,17.53
2023-03-05T10:35:12.754Z,19.50
2023-03-05T10:45:24.315Z,21.50
2023-03-05T10:55:25.876Z,17.33
2023-03-05T11:05:44.553Z,18.83
2023-03-05T11:15:59.505Z,22.10
2023-03-05T11:26:13.248Z,19.90
2023-03-05T11:36:33.925Z,29.67
2023-03-05T11:46:41.880Z,20.20
2023-03-05T11:56:45.665Z,18.83
2023-03-05T12:06:58.442Z,18.17
2023-03-05T12:17:28.178Z,19.40
2023-03-05T12:27:36.753Z,18.93
2023-03-05T12:37:44.532Z,16.50
2023-03-05T12:47:56.600Z,20.33
2023-03-05T12:58:03.036Z,19.50
2023-03-05T13:08:19.655Z,16.83
2023-03-05T13:18:24.982Z,21.27
2023-03-05T13:28:27.095Z,18.20
2023-03-05T13:38:32.201Z,17.60
2023-03-05T13:48:33.795Z,16.67
2023-03-05T13:58:55.433Z,16.23
2023-03-05T14:09:17.292Z,17.70
2023-03-05T14:19:33.394Z,22.57
2023-03-05T14:29:35.904Z,14.40
2023-03-05T14:39:51.626Z,16.80
2023-03-05T14:49:53.482Z,17.25
2023-03-05T14:59:55.102Z,15.07
2023-03-05T15:09:57.229Z,18.67
2023-03-05T15:19:58.923Z,21.30
2023-03-05T15:30:00.763Z,19.27
2023-03-05T15:40:02.382Z,17.83
2023-03-05T15:50:04.572Z,18.03
2023-03-05T16:00:07.371Z,17.23
2023-03-05T16:10:13.473Z,16.83
2023-03-05T16:20:16.272Z,17.30
2023-03-05T16:30:18.420Z,18.88
2023-03-05T16:40:20.108Z,17.13
2023-03-05T16:50:22.005Z,20.93
2023-03-05T17:00:23.693Z,19.10
2023-03-05T17:10:25.424Z,20.50
2023-03-05T17:20:27.815Z,25.80
2023-03-05T17:30:29.438Z,17.77
2023-03-05T17:40:31.258Z,13.83
2023-03-05T17:50:33.038Z,10.43
2023-03-05T18:00:35.241Z,11.73
2023-03-05T18:10:37.393Z,9.10
2023-03-05T18:20:39.047Z,11.07
2023-03-05T18:30:42.234Z,13.37
2023-03-05T18:40:43.885Z,12.13
2023-03-05T18:50:46.121Z,14.93
2023-03-05T19:00:48.652Z,14.07
2023-03-05T19:10:50.504Z,18.13
2023-03-05T19:20:55.873Z,16.97
2023-03-05T19:30:57.726Z,18.63
2023-03-05T19:40:59.528Z,19.13
2023-03-05T19:51:01.609Z,15.25
2023-03-05T20:01:11.133Z,17.70
2023-03-05T20:11:14.542Z,15.90
2023-03-05T20:21:16.857Z,14.60
2023-03-05T20:31:20.563Z,16.83
2023-03-05T20:41:23.784Z,16.85
2023-03-05T20:51:32.179Z,15.00
2023-03-05T21:01:36.693Z,14.77
2023-03-05T21:11:38.864Z,12.93
2023-03-05T21:21:41.057Z,20.83
2023-03-05T21:31:43.216Z,18.23
2023-03-05T21:41:45.052Z,16.23
2023-03-05T21:51:56.863Z,19.00
2023-03-05T22:01:58.958Z,18.87
2023-03-05T22:12:00.869Z,15.47
2023-03-05T22:22:03.185Z,16.90
2023-03-05T22:32:05.650Z,15.90
2023-03-05T22:42:08.514Z,18.80
2023-03-05T22:52:11.572Z,19.37
2023-03-05T23:02:14.332Z,19.17
2023-03-05T23:12:16.236Z,24.58
2023-03-05T23:22:18.193Z,19.77
2023-03-05T23:32:20.248Z,23.77
2023-03-05T23:42:22.288Z,22.13
2023-03-05T23:52:24.522Z,17.27
